Terminal Aerodrome Forecast
Issued by NWS Upton, NY

Home | Current Version | Previous Version | Text Only | Print | Product List | Glossary On
Versions: 1 2 3 4 5 6 7 8 9 10 11 12 13 14 15 16 17 18 19 20 21 22 23 24 25 26 27 28 29 30 31 32 33
247
FTUS41 KOKX 090230 AAA
TAFBDR
TAF AMD
KBDR 090230Z 0903/0924 27010G16KT P6SM FEW050 SCT250
     FM090500 30012G18KT P6SM FEW040
     FM091400 28015G23KT P6SM SCT040
     FM091700 30018G25KT P6SM BKN040=

USA.gov is the U.S. government's official web portal to all federal, state and local government web resources and services.